Flight Track Log - Related Links

Times and Time Zones

All times are in EDT time to prevent confusion due to time zone crossing. See the EJA922 flight status page for this flight to view local times or setup timezone preferences in your user account.

Time Position Orientation Groundspeed Altitude Reporting Facility
EDT Latitude Longitude Course Direction KTS MPH feet Rate Location/Type
Mon 08:34:01 PM 42.6650 -83.4750 274° West 185 213 2,900  Level Cleveland Center
Mon 08:35:14 PM 42.6336 -83.5658 245° Southwest 225 259 4,900 1,033 Climbing Cleveland Center
Mon 08:36:03 PM 42.6122 -83.6375 248° West 248 285 5,000 97 Climbing Cleveland Center
Mon 08:36:16 PM 42.6067 -83.6511 241° Southwest 239 275 5,000 2,459 Level Cleveland Center
Mon 08:37:04 PM 42.5817 -83.7297 247° West 263 303 7,500 2,806 Climbing Cleveland Center
Mon 08:37:18 PM 42.5775 -83.7392 239° Southwest 253 291 7,900 2,605 Climbing Cleveland Center
Mon 08:38:20 PM 42.5439 -83.8436 246° West 287 330 10,800 2,855 Climbing Cleveland Center
Mon 08:39:22 PM 42.5089 -83.9475 245° Southwest 318 366 13,800 2,516 Climbing Cleveland Center
Mon 08:40:24 PM 42.4608 -84.0911 246° West 353 406 16,000 2,081 Climbing Cleveland Center
Mon 08:41:26 PM 42.4258 -84.2242 250° West 377 434 18,100 1,984 Climbing Cleveland Center
Mon 08:42:28 PM 42.4311 -84.3647 273° West 374 430 20,100 1,790 Climbing Cleveland Center
Mon 08:43:30 PM 42.4369 -84.5114 273° West 387 445 21,800 1,645 Climbing Cleveland Center
Mon 08:44:32 PM 42.4403 -84.6764 272° West 393 452 23,500 1,056 Climbing Chicago Center
Mon 08:45:35 PM 42.4439 -84.8300 272° West 406 467 24,000 240 Climbing Chicago Center
Mon 08:46:37 PM 42.4478 -84.9956 272° West 432 497 24,000  Level Chicago Center
Mon 08:47:39 PM 42.4514 -85.1672 272° West 452 520 24,000  Level Chicago Center
Mon 08:48:41 PM 42.4553 -85.3386 272° West 455 524 24,000  Level Chicago Center
Mon 08:49:43 PM 42.4578 -85.5394 271° West 447 514 24,000  Level Chicago Center
Mon 08:50:45 PM 42.4611 -85.7078 272° West 446 513 24,000 -532 Level Chicago Center
Mon 08:51:47 PM 42.4633 -85.8725 271° West 439 505 22,900 -1,694 Descending Chicago Center
Mon 08:52:49 PM 42.4647 -86.0411 271° West 444 511 20,500 -1,403 Descending Chicago Center
Mon 08:53:51 PM 42.4608 -86.2067 268° West 440 506 20,000 -823 Descending Chicago Center
Mon 08:54:53 PM 42.4519 -86.3658 266° West 425 489 18,800 -1,887 Descending Chicago Center
Mon 08:55:55 PM 42.4431 -86.5258 266° West 426 490 16,100 -2,516 Descending Chicago Center
Mon 08:56:57 PM 42.4339 -86.6747 265° West 398 458 13,600 -2,710 Descending Chicago Center
Mon 08:57:59 PM 42.4258 -86.8550 267° West 399 459 10,500 -2,516 Descending Chicago Center
Mon 08:59:01 PM 42.4178 -86.9850 265° West 352 405 8,400 -1,839 Descending Chicago Center
Mon 09:00:03 PM 42.4111 -87.0861 265° West 274 315 6,700 -1,597 Descending Chicago Center
Mon 09:01:05 PM 42.4058 -87.1833 266° West 260 299 5,100 -1,500 Descending Chicago Center
Mon 09:02:07 PM 42.3992 -87.2775 265° West 253 291 3,600 -1,016 Descending Chicago Center
Mon 09:03:09 PM 42.3911 -87.3775 264° West 248 285 3,000 -290 Descending Chicago Center
Mon 09:04:11 PM 42.3794 -87.4708 260° West 252 290 3,000  Level Chicago Center
Mon 09:05:13 PM 42.3672 -87.5714 261° West 251 289 3,000  Level Chicago Center
Mon 09:06:15 PM 42.3578 -87.6619 262° West 246 283 3,000  Level Chicago Center
Mon 09:07:17 PM 42.3486 -87.7514 262° West 242 278 3,000  Level Chicago Center
Mon 09:08:19 PM 42.3372 -87.8547 262° West 236 272 3,000 -290 Level Chicago Center
Mon 09:09:21 PM 42.3319 -87.9247 264° West 207 238 2,400 -290 Descending Chicago Center
Mon 09:10:23 PM 42.3069 -87.9589 225° Southwest 189 217 2,400  Level Chicago Center
Mon 09:11:25 PM 42.2456 -87.9697 187° South 186 214 2,400 -48 Level Chicago Center
Mon 09:12:27 PM 42.2014 -87.9492 161° South 173 199 2,300 -339 Descending Chicago Center
Mon 09:13:29 PM 42.1708 -87.9325 158° South 138 159 1,700 -581 Descending Chicago Center
Mon 09:14:31 PM 42.1419 -87.9183 160° South 122 140 1,100 -339 Descending Chicago Center
Mon 09:15:33 PM 42.1131 -87.9033 159° South 120 138 1,000 -97 Descending Chicago Center

Login

Don't have an account? Register now (free) for customized features, flight alerts, and more!